Time;durP1;ratioP1;P1;durP2;ratioP2;P2;SDS_P1;SDS_P2;PMS_P1;PMS_P2;Temp;Humidity;BMP_temperature;BMP_pressure;BME280_temperature;BME280_humidity;BME280_pressure;Samples;Min_cycle;Max_cycle;Signal;HPM_P1;HPM_P2
2021/04/11 00:00:48;;;;;;;17.85;7.53;;;;;;;;;;5053188;28;20051;-65
2021/04/11 00:03:18;;;;;;;14.60;6.78;;;;;;;;;;5053634;28;20025;-65
2021/04/11 00:05:43;;;;;;;13.02;7.25;;;;;;;;;;5053545;28;20430;-66
2021/04/11 00:08:10;;;;;;;21.98;7.18;;;;;;;;;;5053627;28;20072;-66
2021/04/11 00:10:37;;;;;;;13.82;7.47;;;;;;;;;;5053105;28;20036;-66
2021/04/11 00:13:04;;;;;;;17.13;7.35;;;;;;;;;;5053553;28;20450;-66
2021/04/11 00:15:30;;;;;;;22.83;7.75;;;;;;;;;;5053223;28;20067;-65
2021/04/11 00:17:56;;;;;;;17.92;7.60;;;;;;;;;;5053457;28;20036;-66
2021/04/11 00:20:21;;;;;;;21.38;8.27;;;;;;;;;;5053116;28;20029;-65
2021/04/11 00:22:47;;;;;;;17.95;7.22;;;;;;;;;;5053299;28;20397;-66
2021/04/11 00:25:16;;;;;;;20.40;7.93;;;;;;;;;;5052683;28;20113;-65
2021/04/11 00:27:41;;;;;;;19.27;7.78;;;;;;;;;;5052618;28;20096;-66
2021/04/11 00:30:07;;;;;;;20.95;8.40;;;;;;;;;;5053024;28;20104;-66
2021/04/11 00:32:32;;;;;;;22.73;8.85;;;;;;;;;;5053164;28;20104;-66
2021/04/11 00:34:58;;;;;;;27.80;10.40;;;;;;;;;;5052909;28;20013;-65
2021/04/11 00:37:23;;;;;;;19.25;8.32;;;;;;;;;;5052972;28;20044;-65
2021/04/11 00:39:48;;;;;;;23.98;8.82;;;;;;;;;;5052604;28;20127;-66
2021/04/11 00:42:25;;;;;;;26.48;8.40;;;;;;;;;;5052920;28;20028;-65
2021/04/11 00:44:51;;;;;;;24.10;8.75;;;;;;;;;;5052997;28;20052;-66
2021/04/11 00:47:16;;;;;;;21.33;8.40;;;;;;;;;;5052334;28;20017;-65
2021/04/11 00:49:44;;;;;;;32.38;9.52;;;;;;;;;;5052916;28;20037;-65
2021/04/11 00:52:11;;;;;;;28.55;9.27;;;;;;;;;;5052859;28;20377;-65
2021/04/11 00:54:36;;;;;;;26.70;9.52;;;;;;;;;;5052702;28;20456;-65
2021/04/11 00:57:02;;;;;;;29.35;10.02;;;;;;;;;;5052526;28;20068;-65
2021/04/11 00:59:28;;;;;;;28.52;8.48;;;;;;;;;;5052788;28;20035;-66
2021/04/11 01:01:53;;;;;;;24.60;9.02;;;;;;;;;;5052710;28;20033;-65
2021/04/11 01:04:19;;;;;;;27.23;10.88;;;;;;;;;;5050543;28;20079;-66
2021/04/11 01:06:48;;;;;;;34.15;9.95;;;;;;;;;;5052830;28;20083;-66
2021/04/11 01:09:24;;;;;;;24.15;8.95;;;;;;;;;;5052714;28;20024;-65
2021/04/11 01:11:51;;;;;;;27.40;9.63;;;;;;;;;;5052460;28;20036;-65
2021/04/11 01:14:16;;;;;;;30.85;9.13;;;;;;;;;;5052443;28;20017;-65
2021/04/11 01:16:42;;;;;;;32.15;9.27;;;;;;;;;;5052574;28;20035;-65
2021/04/11 01:19:10;;;;;;;33.70;10.35;;;;;;;;;;5053031;28;20037;-65
2021/04/11 01:21:41;;;;;;;30.15;9.48;;;;;;;;;;5052573;28;20472;-66
2021/04/11 01:24:15;;;;;;;37.67;10.20;;;;;;;;;;5052784;28;20036;-65
2021/04/11 01:26:43;;;;;;;27.27;9.70;;;;;;;;;;5049986;28;20041;-66
2021/04/11 01:29:09;;;;;;;28.23;8.75;;;;;;;;;;5051245;28;20033;-65
2021/04/11 01:31:34;;;;;;;24.05;8.15;;;;;;;;;;5051837;28;20380;-65
2021/04/11 01:34:00;;;;;;;34.22;9.15;;;;;;;;;;5050871;28;20039;-66
2021/04/11 01:36:28;;;;;;;31.75;9.32;;;;;;;;;;5031097;28;20536;-65
2021/04/11 01:38:54;;;;;;;25.55;8.30;;;;;;;;;;5032848;28;20053;-65
2021/04/11 01:41:26;;;;;;;32.17;9.10;;;;;;;;;;5035941;28;20053;-65
2021/04/11 01:43:51;;;;;;;29.88;8.55;;;;;;;;;;5036409;28;20041;-65
2021/04/11 01:46:17;;;;;;;27.88;8.60;;;;;;;;;;5035851;28;20026;-65
2021/04/11 01:48:43;;;;;;;26.55;8.88;;;;;;;;;;5036195;28;20112;-65
2021/04/11 01:51:10;;;;;;;27.92;8.90;;;;;;;;;;5036091;28;20056;-65
2021/04/11 01:53:35;;;;;;;30.52;10.35;;;;;;;;;;5036125;28;20029;-66
2021/04/11 01:56:00;;;;;;;32.92;9.65;;;;;;;;;;5036058;28;20037;-65
2021/04/11 01:58:26;;;;;;;35.47;11.98;;;;;;;;;;5035743;28;20037;-65
2021/04/11 02:01:10;;;;;;;34.55;10.60;;;;;;;;;;5035513;28;20144;-66
2021/04/11 02:03:36;;;;;;;41.72;11.60;;;;;;;;;;5035693;28;20057;-65
2021/04/11 02:06:06;;;;;;;37.90;11.52;;;;;;;;;;5036085;28;20065;-65
2021/04/11 02:08:32;;;;;;;42.83;11.98;;;;;;;;;;5035859;28;20071;-65
2021/04/11 02:10:57;;;;;;;41.85;13.48;;;;;;;;;;5035694;28;20025;-65
2021/04/11 02:13:30;;;;;;;48.75;14.80;;;;;;;;;;5036008;28;20056;-65
2021/04/11 02:15:57;;;;;;;38.80;12.38;;;;;;;;;;5035267;28;20068;-65
2021/04/11 02:18:22;;;;;;;50.15;13.20;;;;;;;;;;5035605;28;20052;-65
2021/04/11 02:20:49;;;;;;;44.38;12.07;;;;;;;;;;5035435;28;20081;-65
2021/04/11 02:23:15;;;;;;;56.78;15.68;;;;;;;;;;5040472;28;20069;-66
2021/04/11 02:25:44;;;;;;;51.33;15.70;;;;;;;;;;5055383;28;20033;-65
2021/04/11 02:28:11;;;;;;;46.60;15.35;;;;;;;;;;5055424;28;20116;-65
2021/04/11 02:30:41;;;;;;;53.28;16.30;;;;;;;;;;5055288;28;20104;-65
2021/04/11 02:33:08;;;;;;;55.13;16.02;;;;;;;;;;5055343;28;20032;-65
2021/04/11 02:35:33;;;;;;;60.13;15.23;;;;;;;;;;5055118;28;20079;-65
2021/04/11 02:37:59;;;;;;;60.80;16.73;;;;;;;;;;5055322;28;20044;-65
2021/04/11 02:40:27;;;;;;;63.50;16.02;;;;;;;;;;5054920;28;20052;-65
2021/04/11 02:42:55;;;;;;;56.83;16.63;;;;;;;;;;5055190;28;20029;-65
2021/04/11 02:45:23;;;;;;;78.50;18.45;;;;;;;;;;5054840;28;20017;-66
2021/04/11 02:47:50;;;;;;;60.60;18.20;;;;;;;;;;5055099;28;20047;-65
2021/04/11 02:50:16;;;;;;;60.88;18.35;;;;;;;;;;5054441;28;20029;-65
2021/04/11 02:52:45;;;;;;;72.40;19.73;;;;;;;;;;5054923;28;20377;-65
2021/04/11 02:55:11;;;;;;;71.93;18.48;;;;;;;;;;5054780;28;20025;-65
2021/04/11 02:57:36;;;;;;;75.07;17.42;;;;;;;;;;5054960;28;20091;-65
2021/04/11 03:00:05;;;;;;;62.22;16.80;;;;;;;;;;5055104;28;20021;-65
2021/04/11 03:02:30;;;;;;;86.15;19.52;;;;;;;;;;5054454;28;20388;-65
2021/04/11 03:04:56;;;;;;;80.10;18.08;;;;;;;;;;5054815;28;20108;-65
2021/04/11 03:07:25;;;;;;;90.55;19.42;;;;;;;;;;5054768;28;20017;-65
2021/04/11 03:09:55;;;;;;;88.03;20.20;;;;;;;;;;5054394;28;20495;-65
2021/04/11 03:12:21;;;;;;;86.13;18.50;;;;;;;;;;5054433;28;20392;-65
2021/04/11 03:14:47;;;;;;;91.20;18.70;;;;;;;;;;5054605;28;20013;-65
2021/04/11 03:17:16;;;;;;;93.40;20.23;;;;;;;;;;5054375;28;20475;-65
2021/04/11 03:19:52;;;;;;;89.03;20.25;;;;;;;;;;5054442;28;20036;-65
2021/04/11 03:22:18;;;;;;;87.22;19.05;;;;;;;;;;5054303;28;20036;-65
2021/04/11 03:24:43;;;;;;;103.63;20.42;;;;;;;;;;5054584;28;20037;-65
2021/04/11 03:27:11;;;;;;;94.65;20.60;;;;;;;;;;5054210;28;20017;-65
2021/04/11 03:29:55;;;;;;;89.10;21.52;;;;;;;;;;5054340;28;20048;-65
2021/04/11 03:32:23;;;;;;;88.38;19.83;;;;;;;;;;5054072;28;20039;-65
2021/04/11 03:34:49;;;;;;;92.57;20.90;;;;;;;;;;5054210;28;20032;-65
2021/04/11 03:37:16;;;;;;;84.88;20.40;;;;;;;;;;5053979;28;20039;-65
2021/04/11 03:39:41;;;;;;;86.80;20.98;;;;;;;;;;5054060;28;20472;-65
2021/04/11 03:42:08;;;;;;;95.32;20.77;;;;;;;;;;5053979;28;20052;-65
2021/04/11 03:44:34;;;;;;;87.05;21.90;;;;;;;;;;5053661;28;20485;-65
2021/04/11 03:46:59;;;;;;;86.45;21.92;;;;;;;;;;5053611;28;20028;-65
2021/04/11 03:49:25;;;;;;;102.93;21.65;;;;;;;;;;5053848;28;20029;-66
2021/04/11 03:51:52;;;;;;;139.10;25.02;;;;;;;;;;5053576;28;20076;-65
2021/04/11 03:54:22;;;;;;;109.55;24.42;;;;;;;;;;5053522;28;20472;-65
2021/04/11 03:56:50;;;;;;;103.85;24.58;;;;;;;;;;5053236;28;20075;-65
2021/04/11 03:59:26;;;;;;;125.05;25.40;;;;;;;;;;5053654;28;20067;-65
2021/04/11 04:01:54;;;;;;;122.72;25.90;;;;;;;;;;5052486;28;20485;-65
2021/04/11 04:04:21;;;;;;;138.27;26.80;;;;;;;;;;5053513;28;20045;-65
2021/04/11 04:07:10;;;;;;;110.15;25.17;;;;;;;;;;5053146;28;20469;-65
2021/04/11 04:09:39;;;;;;;99.80;24.50;;;;;;;;;;5040239;28;20051;-65
2021/04/11 04:12:05;;;;;;;105.78;24.67;;;;;;;;;;5053393;28;20029;-65
2021/04/11 04:14:36;;;;;;;126.03;26.52;;;;;;;;;;5053323;28;20107;-65
2021/04/11 04:17:04;;;;;;;108.53;23.30;;;;;;;;;;5053274;28;20040;-65
2021/04/11 04:19:41;;;;;;;123.80;26.23;;;;;;;;;;5052945;28;20473;-65
2021/04/11 04:22:18;;;;;;;142.90;25.77;;;;;;;;;;5053101;28;20098;-65
2021/04/11 04:24:59;;;;;;;144.70;25.95;;;;;;;;;;5053138;28;20044;-65
2021/04/11 04:27:39;;;;;;;117.57;25.55;;;;;;;;;;5053050;28;20021;-65
2021/04/11 04:30:10;;;;;;;126.57;25.15;;;;;;;;;;5052887;28;20557;-65
2021/04/11 04:32:54;;;;;;;134.57;27.05;;;;;;;;;;5052641;28;20412;-65
2021/04/11 04:35:31;;;;;;;130.65;25.23;;;;;;;;;;5052815;28;20036;-65
2021/04/11 04:38:06;;;;;;;120.70;24.48;;;;;;;;;;5053116;28;20043;-65
2021/04/11 04:40:32;;;;;;;96.22;22.55;;;;;;;;;;5052310;28;20060;-65
2021/04/11 04:43:11;;;;;;;113.70;25.45;;;;;;;;;;5053069;28;20033;-65
2021/04/11 04:45:37;;;;;;;95.75;23.95;;;;;;;;;;5052720;28;20037;-65
2021/04/11 04:48:14;;;;;;;116.20;24.55;;;;;;;;;;5052976;28;20087;-65
2021/04/11 04:50:39;;;;;;;103.55;23.08;;;;;;;;;;5031540;28;20052;-65
2021/04/11 04:53:04;;;;;;;92.93;24.17;;;;;;;;;;5033031;28;20029;-65
2021/04/11 04:55:32;;;;;;;93.03;23.95;;;;;;;;;;5032464;28;20059;-65
2021/04/11 04:58:11;;;;;;;94.05;24.95;;;;;;;;;;5032992;28;20009;-65
2021/04/11 05:00:38;;;;;;;101.72;27.40;;;;;;;;;;5032696;28;20041;-65
2021/04/11 05:03:16;;;;;;;120.75;28.52;;;;;;;;;;5033267;28;20025;-65
2021/04/11 05:05:44;;;;;;;106.72;28.35;;;;;;;;;;5032770;28;20112;-65
2021/04/11 05:08:14;;;;;;;111.28;28.58;;;;;;;;;;5032918;28;20029;-65
2021/04/11 05:10:45;;;;;;;110.88;27.52;;;;;;;;;;5032652;28;20033;-65
2021/04/11 05:13:13;;;;;;;118.75;26.38;;;;;;;;;;5034385;28;20030;-65
2021/04/11 05:15:42;;;;;;;146.82;29.60;;;;;;;;;;5036611;28;20116;-65
2021/04/11 05:18:12;;;;;;;149.02;28.40;;;;;;;;;;5036913;28;20064;-65
2021/04/11 05:20:42;;;;;;;147.40;30.25;;;;;;;;;;5036500;28;20092;-66
2021/04/11 05:23:19;;;;;;;150.95;30.05;;;;;;;;;;5040528;28;20029;-65
2021/04/11 05:25:47;;;;;;;142.52;28.92;;;;;;;;;;5056429;28;20032;-65
2021/04/11 05:28:35;;;;;;;150.20;29.75;;;;;;;;;;5055284;28;20408;-65
2021/04/11 05:31:05;;;;;;;149.30;28.95;;;;;;;;;;5056494;28;20036;-65
2021/04/11 05:33:33;;;;;;;161.13;29.20;;;;;;;;;;5056394;28;20035;-65
2021/04/11 05:36:17;;;;;;;154.32;28.83;;;;;;;;;;5056297;28;20013;-65
2021/04/11 05:38:57;;;;;;;142.15;27.75;;;;;;;;;;5056029;28;20048;-65
2021/04/11 05:41:26;;;;;;;146.13;27.35;;;;;;;;;;5055998;28;20052;-65
2021/04/11 05:44:09;;;;;;;116.00;26.05;;;;;;;;;;5056594;28;20116;-65
2021/04/11 05:46:37;;;;;;;125.70;27.10;;;;;;;;;;5055673;28;20508;-65
2021/04/11 05:49:22;;;;;;;107.28;27.33;;;;;;;;;;5056178;28;20110;-65
2021/04/11 05:51:57;;;;;;;117.90;27.83;;;;;;;;;;5055115;28;20615;-65
2021/04/11 05:54:32;;;;;;;115.70;28.38;;;;;;;;;;5056335;28;20031;-65
2021/04/11 05:57:06;;;;;;;129.02;29.65;;;;;;;;;;5055952;28;20111;-65
2021/04/11 05:59:33;;;;;;;125.47;30.70;;;;;;;;;;5055901;28;20037;-65
2021/04/11 06:01:59;;;;;;;113.57;27.40;;;;;;;;;;5055801;28;20047;-65
2021/04/11 06:04:43;;;;;;;147.07;28.25;;;;;;;;;;5055780;28;20017;-65
2021/04/11 06:07:08;;;;;;;143.40;28.38;;;;;;;;;;5055709;28;20111;-65
2021/04/11 06:09:44;;;;;;;149.65;29.90;;;;;;;;;;5055680;28;20673;-65
2021/04/11 06:12:16;;;;;;;125.55;25.73;;;;;;;;;;5055638;28;20485;-65
2021/04/11 06:14:58;;;;;;;132.02;27.73;;;;;;;;;;5055686;28;20041;-65
2021/04/11 06:17:23;;;;;;;94.72;23.92;;;;;;;;;;5055391;28;20036;-65
2021/04/11 06:19:48;;;;;;;124.93;28.15;;;;;;;;;;5055683;28;20037;-65
2021/04/11 06:22:17;;;;;;;103.32;25.27;;;;;;;;;;5055310;28;20056;-65
2021/04/11 06:24:50;;;;;;;105.78;23.55;;;;;;;;;;5054531;28;20040;-66
2021/04/11 06:27:16;;;;;;;174.15;26.48;;;;;;;;;;5055335;28;20075;-66
2021/04/11 06:29:54;;;;;;;109.68;20.08;;;;;;;;;;5055410;28;20013;-66
2021/04/11 06:32:19;;;;;;;201.55;23.33;;;;;;;;;;5055238;28;20033;-66
2021/04/11 06:34:46;;;;;;;421.63;34.58;;;;;;;;;;5055345;28;20528;-67
2021/04/11 06:37:15;;;;;;;214.75;21.92;;;;;;;;;;5055212;28;20021;-66
2021/04/11 06:39:43;;;;;;;245.18;27.27;;;;;;;;;;5055260;28;20077;-66
2021/04/11 06:42:27;;;;;;;67.28;17.85;;;;;;;;;;5054405;28;20080;-66
2021/04/11 06:44:52;;;;;;;100.00;17.67;;;;;;;;;;5054675;28;20029;-66
2021/04/11 06:47:17;;;;;;;28.77;12.98;;;;;;;;;;5054856;28;20380;-67
2021/04/11 06:50:05;;;;;;;20.45;12.18;;;;;;;;;;5054967;28;20025;-66
2021/04/11 06:52:41;;;;;;;19.45;13.02;;;;;;;;;;5054796;28;20078;-66
2021/04/11 06:55:09;;;;;;;20.73;12.45;;;;;;;;;;5054893;28;20067;-66
2021/04/11 06:57:38;;;;;;;20.55;13.40;;;;;;;;;;5054650;28;20064;-64
2021/04/11 07:00:03;;;;;;;19.85;11.88;;;;;;;;;;5054871;28;20037;-63
2021/04/11 07:02:29;;;;;;;20.17;12.60;;;;;;;;;;5059669;28;20043;-64
2021/04/11 07:05:13;;;;;;;24.65;13.82;;;;;;;;;;5060283;28;20040;-64
2021/04/11 07:07:38;;;;;;;22.95;14.48;;;;;;;;;;5074467;28;20064;-64
2021/04/11 07:10:22;;;;;;;21.63;13.35;;;;;;;;;;5075006;28;20055;-63
2021/04/11 07:12:50;;;;;;;23.58;15.05;;;;;;;;;;5074318;28;20028;-63
2021/04/11 07:15:34;;;;;;;26.10;15.93;;;;;;;;;;5074514;28;20035;-64
2021/04/11 07:18:14;;;;;;;31.13;15.85;;;;;;;;;;5074514;28;20107;-66
2021/04/11 07:21:18;;;;;;;23.45;15.32;;;;;;;;;;5074207;28;20078;-66
2021/04/11 07:23:52;;;;;;;28.52;17.13;;;;;;;;;;5042902;28;20057;-66
2021/04/11 07:26:21;;;;;;;26.73;16.75;;;;;;;;;;5031593;28;20036;-66
2021/04/11 07:28:46;;;;;;;25.50;16.52;;;;;;;;;;5043871;28;20044;-66
2021/04/11 07:31:15;;;;;;;27.65;16.80;;;;;;;;;;5054042;28;20412;-66
2021/04/11 07:33:40;;;;;;;28.15;16.45;;;;;;;;;;5053969;28;20516;-66
2021/04/11 07:36:14;;;;;;;24.52;16.08;;;;;;;;;;5052815;28;20120;-66
2021/04/11 07:38:40;;;;;;;24.38;15.70;;;;;;;;;;5053712;28;20029;-66
2021/04/11 07:41:24;;;;;;;26.23;16.65;;;;;;;;;;5053751;28;20492;-66
2021/04/11 07:44:08;;;;;;;26.77;14.55;;;;;;;;;;5054171;28;20103;-66
2021/04/11 07:46:52;;;;;;;26.63;16.60;;;;;;;;;;5054805;28;20016;-66
2021/04/11 07:49:17;;;;;;;21.73;14.73;;;;;;;;;;5050627;28;20033;-66
2021/04/11 07:51:47;;;;;;;22.13;14.52;;;;;;;;;;5061765;28;20023;-66
2021/04/11 07:54:13;;;;;;;23.05;14.93;;;;;;;;;;5044025;28;20049;-66
2021/04/11 07:57:08;;;;;;;25.75;15.20;;;;;;;;;;5047944;28;20148;-66
2021/04/11 07:59:42;;;;;;;25.75;15.23;;;;;;;;;;5049993;28;20025;-66
2021/04/11 08:02:10;;;;;;;23.30;14.50;;;;;;;;;;5049755;28;20067;-66
2021/04/11 08:04:52;;;;;;;25.25;15.23;;;;;;;;;;5048924;28;20017;-66
2021/04/11 08:07:17;;;;;;;26.85;16.83;;;;;;;;;;5050338;28;20036;-66
2021/04/11 08:09:47;;;;;;;21.60;13.68;;;;;;;;;;5050061;28;20353;-66
2021/04/11 08:12:29;;;;;;;25.55;15.70;;;;;;;;;;5049878;28;20029;-66
2021/04/11 08:15:07;;;;;;;25.48;14.73;;;;;;;;;;5049732;28;20029;-66
2021/04/11 08:17:38;;;;;;;23.95;14.77;;;;;;;;;;5049429;28;20033;-66
2021/04/11 08:20:06;;;;;;;23.33;14.88;;;;;;;;;;5049395;28;20051;-66
2021/04/11 08:22:44;;;;;;;24.88;13.38;;;;;;;;;;5049169;28;20042;-66
2021/04/11 08:25:25;;;;;;;22.98;12.93;;;;;;;;;;5042883;28;20061;-66
2021/04/11 08:28:02;;;;;;;25.85;14.18;;;;;;;;;;5049153;28;20041;-66
2021/04/11 08:30:33;;;;;;;20.10;13.65;;;;;;;;;;5048846;28;20047;-67
2021/04/11 08:33:04;;;;;;;19.17;13.30;;;;;;;;;;5033927;28;20029;-67
2021/04/11 08:35:42;;;;;;;20.83;13.48;;;;;;;;;;5049505;28;20129;-67
2021/04/11 08:38:10;;;;;;;18.45;12.30;;;;;;;;;;5049860;28;20036;-67
2021/04/11 08:40:44;;;;;;;17.65;13.40;;;;;;;;;;5048991;28;21121;-67
2021/04/11 08:43:13;;;;;;;19.77;12.60;;;;;;;;;;5049816;28;20033;-67
2021/04/11 08:45:53;;;;;;;20.25;13.40;;;;;;;;;;5049050;28;20029;-64
2021/04/11 08:48:37;;;;;;;19.85;12.65;;;;;;;;;;5049585;28;20037;-65
2021/04/11 08:51:20;;;;;;;17.80;11.73;;;;;;;;;;5045342;28;20033;-67
2021/04/11 08:53:59;;;;;;;18.77;11.38;;;;;;;;;;5044628;28;20035;-67
2021/04/11 08:56:48;;;;;;;15.82;10.52;;;;;;;;;;5044128;28;20090;-68
2021/04/11 08:59:25;;;;;;;16.52;11.48;;;;;;;;;;5044458;28;20158;-67
2021/04/11 09:02:09;;;;;;;17.10;10.68;;;;;;;;;;5042057;28;20049;-67
2021/04/11 09:04:37;;;;;;;15.23;9.85;;;;;;;;;;5044761;28;20033;-67
2021/04/11 09:07:21;;;;;;;12.00;8.73;;;;;;;;;;5043995;28;20772;-67
2021/04/11 09:09:46;;;;;;;12.35;8.23;;;;;;;;;;5036949;28;20037;-68
2021/04/11 09:12:14;;;;;;;12.13;7.55;;;;;;;;;;5044440;28;20098;-68
2021/04/11 09:14:42;;;;;;;12.52;7.57;;;;;;;;;;5049947;28;20086;-68
2021/04/11 09:17:08;;;;;;;11.57;7.55;;;;;;;;;;5044529;28;20021;-68
2021/04/11 09:19:45;;;;;;;11.23;6.03;;;;;;;;;;5047704;28;20055;-68
2021/04/11 09:22:25;;;;;;;8.10;5.00;;;;;;;;;;5060041;28;20036;-67
2021/04/11 09:25:06;;;;;;;13.05;4.75;;;;;;;;;;5065344;28;20044;-67
2021/04/11 09:27:40;;;;;;;11.32;5.70;;;;;;;;;;5057060;28;20033;-67
2021/04/11 09:30:17;;;;;;;8.70;5.32;;;;;;;;;;5046491;28;20032;-67
2021/04/11 09:32:45;;;;;;;11.38;6.38;;;;;;;;;;5051386;28;20056;-67
2021/04/11 09:35:14;;;;;;;11.95;6.93;;;;;;;;;;5045389;28;20039;-67
2021/04/11 09:37:58;;;;;;;13.88;6.90;;;;;;;;;;5043741;28;20505;-67
2021/04/11 09:40:38;;;;;;;11.82;6.00;;;;;;;;;;5045185;28;20163;-67
2021/04/11 09:43:22;;;;;;;9.68;6.15;;;;;;;;;;5044068;28;20473;-66
2021/04/11 09:46:06;;;;;;;9.77;6.10;;;;;;;;;;5044868;28;20049;-67
2021/04/11 09:48:49;;;;;;;8.40;5.82;;;;;;;;;;5048274;28;20060;-67
2021/04/11 09:51:21;;;;;;;12.00;5.70;;;;;;;;;;5048090;28;20036;-66
2021/04/11 09:53:50;;;;;;;10.27;5.60;;;;;;;;;;5046563;28;20037;-67
2021/04/11 09:56:18;;;;;;;10.43;5.90;;;;;;;;;;5047840;28;20029;-67
2021/04/11 09:58:46;;;;;;;10.10;4.97;;;;;;;;;;5048475;28;20033;-67
2021/04/11 10:01:18;;;;;;;7.97;5.15;;;;;;;;;;5054858;28;20073;-67
2021/04/11 10:03:51;;;;;;;7.80;4.38;;;;;;;;;;5051442;28;20055;-67
2021/04/11 10:06:19;;;;;;;8.43;4.78;;;;;;;;;;5054818;28;20044;-66
2021/04/11 10:09:20;;;;;;;8.43;5.03;;;;;;;;;;5051281;28;20037;-66
2021/04/11 10:11:51;;;;;;;7.32;3.80;;;;;;;;;;5005955;28;20034;-66
2021/04/11 10:14:35;;;;;;;7.18;3.60;;;;;;;;;;5043365;28;20044;-66
2021/04/11 10:17:19;;;;;;;12.05;4.50;;;;;;;;;;5051080;28;20047;-66
2021/04/11 10:19:44;;;;;;;7.80;4.55;;;;;;;;;;5050885;28;20028;-67
2021/04/11 10:22:30;;;;;;;9.35;5.20;;;;;;;;;;5050518;28;20047;-67
2021/04/11 10:25:07;;;;;;;9.10;5.20;;;;;;;;;;5050465;28;20469;-67
2021/04/11 10:27:56;;;;;;;9.40;5.00;;;;;;;;;;5050615;28;20033;-67
2021/04/11 10:30:22;;;;;;;10.10;4.43;;;;;;;;;;5013041;28;20131;-67
2021/04/11 10:33:01;;;;;;;8.88;3.88;;;;;;;;;;5049880;28;20162;-67
2021/04/11 10:35:49;;;;;;;9.65;4.90;;;;;;;;;;5050919;28;20040;-67
2021/04/11 10:38:20;;;;;;;7.40;4.40;;;;;;;;;;5038377;28;20041;-67
2021/04/11 10:40:51;;;;;;;9.60;4.53;;;;;;;;;;5050299;28;20056;-67
2021/04/11 10:43:35;;;;;;;10.30;4.18;;;;;;;;;;5050138;28;20029;-67
2021/04/11 10:46:10;;;;;;;9.93;4.82;;;;;;;;;;5050650;28;20037;-67
2021/04/11 10:48:41;;;;;;;9.05;4.90;;;;;;;;;;5050715;28;20037;-67
2021/04/11 10:51:25;;;;;;;8.90;4.88;;;;;;;;;;5050597;28;20033;-66
2021/04/11 10:54:09;;;;;;;10.25;5.05;;;;;;;;;;5050206;28;20044;-67
2021/04/11 10:56:44;;;;;;;12.48;4.85;;;;;;;;;;5050644;28;20037;-66
2021/04/11 10:59:28;;;;;;;12.75;4.85;;;;;;;;;;5050758;28;20041;-66
2021/04/11 11:02:12;;;;;;;10.57;4.70;;;;;;;;;;5050452;28;20041;-66
2021/04/11 11:04:53;;;;;;;6.25;3.63;;;;;;;;;;5050362;28;20100;-66
2021/04/11 11:07:24;;;;;;;8.50;4.10;;;;;;;;;;5050310;28;20039;-66
2021/04/11 11:09:57;;;;;;;7.68;3.60;;;;;;;;;;5049739;28;20470;-66
2021/04/11 11:12:23;;;;;;;6.85;3.40;;;;;;;;;;5049910;28;20036;-66
2021/04/11 11:14:48;;;;;;;6.07;3.58;;;;;;;;;;5049861;28;20392;-66
2021/04/11 11:17:32;;;;;;;9.18;3.70;;;;;;;;;;5050333;28;20017;-66
2021/04/11 11:20:16;;;;;;;6.47;3.00;;;;;;;;;;5049994;28;20029;-66
2021/04/11 11:22:50;;;;;;;4.63;3.10;;;;;;;;;;5050594;28;20041;-66
2021/04/11 11:25:15;;;;;;;6.60;3.78;;;;;;;;;;5050037;28;20079;-66
2021/04/11 11:27:59;;;;;;;4.78;3.20;;;;;;;;;;5050402;28;20456;-66
2021/04/11 11:30:43;;;;;;;7.88;3.30;;;;;;;;;;5049689;28;20032;-66
2021/04/11 11:33:19;;;;;;;9.52;4.03;;;;;;;;;;5049960;28;20389;-66
2021/04/11 11:36:07;;;;;;;7.25;3.53;;;;;;;;;;5049328;28;20033;-66
2021/04/11 11:38:42;;;;;;;7.05;3.70;;;;;;;;;;5008615;28;20076;-66
2021/04/11 11:41:28;;;;;;;10.20;3.63;;;;;;;;;;5049867;28;20457;-66
2021/04/11 11:44:03;;;;;;;6.18;3.60;;;;;;;;;;5049445;28;20075;-66
2021/04/11 11:46:28;;;;;;;;;;;;;;;;;;5050285;28;20036;-66
2021/04/11 11:48:56;;;;;;;8.25;3.85;;;;;;;;;;5051494;28;19908;-67
2021/04/11 11:51:29;;;;;;;8.93;4.68;;;;;;;;;;5053913;28;20274;-66
2021/04/11 11:53:54;;;;;;;7.60;4.00;;;;;;;;;;5048718;28;20029;-66
2021/04/11 11:56:23;;;;;;;7.95;4.50;;;;;;;;;;5048685;28;20048;-66
2021/04/11 11:59:03;;;;;;;7.10;4.15;;;;;;;;;;5048969;28;20056;-66
2021/04/11 12:01:42;;;;;;;11.10;4.53;;;;;;;;;;5046182;28;20040;-66
2021/04/11 12:04:26;;;;;;;7.93;4.55;;;;;;;;;;5049097;28;20139;-67
2021/04/11 12:06:53;;;;;;;9.38;4.78;;;;;;;;;;5048046;28;20047;-66
2021/04/11 12:09:28;;;;;;;8.82;4.45;;;;;;;;;;5048585;28;20036;-66
2021/04/11 12:12:07;;;;;;;8.07;4.83;;;;;;;;;;5048454;28;20059;-66
2021/04/11 12:14:51;;;;;;;9.13;5.10;;;;;;;;;;5048882;28;20029;-66
2021/04/11 12:17:22;;;;;;;9.45;5.60;;;;;;;;;;5048287;28;20036;-67
2021/04/11 12:19:47;;;;;;;11.35;6.28;;;;;;;;;;5048585;28;20040;-66
2021/04/11 12:22:23;;;;;;;10.20;5.88;;;;;;;;;;5048629;28;20488;-66
2021/04/11 12:24:56;;;;;;;10.20;5.53;;;;;;;;;;5048633;28;20366;-66
2021/04/11 12:27:40;;;;;;;11.98;6.03;;;;;;;;;;5048264;28;20033;-66
2021/04/11 12:30:07;;;;;;;9.93;6.03;;;;;;;;;;5048673;28;20039;-66
2021/04/11 12:32:35;;;;;;;10.13;5.68;;;;;;;;;;5048513;28;20084;-67
2021/04/11 12:35:16;;;;;;;10.75;5.72;;;;;;;;;;5048321;28;20380;-66
2021/04/11 12:38:00;;;;;;;11.15;6.15;;;;;;;;;;5047022;28;20546;-66
2021/04/11 12:40:30;;;;;;;9.48;5.13;;;;;;;;;;5047845;28;20076;-66
2021/04/11 12:43:19;;;;;;;8.52;5.22;;;;;;;;;;5055715;28;20072;-67
2021/04/11 12:46:00;;;;;;;7.88;4.60;;;;;;;;;;5049268;28;20053;-66
2021/04/11 12:48:29;;;;;;;9.52;4.47;;;;;;;;;;5047943;28;20037;-66
2021/04/11 12:50:54;;;;;;;8.52;4.38;;;;;;;;;;5048995;28;20036;-66
2021/04/11 12:53:23;;;;;;;10.13;4.22;;;;;;;;;;5047991;28;20017;-67
2021/04/11 12:55:50;;;;;;;9.98;5.03;;;;;;;;;;5048270;28;20126;-66
2021/04/11 12:58:27;;;;;;;10.45;5.35;;;;;;;;;;5047266;28;20393;-66
2021/04/11 13:01:02;;;;;;;11.25;5.57;;;;;;;;;;5048224;28;20037;-66
2021/04/11 13:03:36;;;;;;;9.70;5.70;;;;;;;;;;5047425;28;20358;-66
2021/04/11 13:06:12;;;;;;;10.60;6.15;;;;;;;;;;5044920;28;20036;-66
2021/04/11 13:08:50;;;;;;;11.75;5.55;;;;;;;;;;5043490;28;20040;-66
2021/04/11 13:11:37;;;;;;;11.20;5.47;;;;;;;;;;5046812;28;20454;-66
2021/04/11 13:14:12;;;;;;;10.18;6.07;;;;;;;;;;5047187;28;20029;-66
2021/04/11 13:16:48;;;;;;;8.93;5.47;;;;;;;;;;5049523;28;20025;-66
2021/04/11 13:19:15;;;;;;;5.63;3.47;;;;;;;;;;5047623;28;20423;-66
2021/04/11 13:21:59;;;;;;;5.70;3.10;;;;;;;;;;5051196;28;20198;-66
2021/04/11 13:24:32;;;;;;;6.05;3.47;;;;;;;;;;5047413;28;20057;-66
2021/04/11 13:27:19;;;;;;;6.28;3.28;;;;;;;;;;5047590;28;20039;-66
2021/04/11 13:29:56;;;;;;;6.60;3.83;;;;;;;;;;5048343;28;20405;-66
2021/04/11 13:32:40;;;;;;;10.77;4.75;;;;;;;;;;5048078;28;20131;-66
2021/04/11 13:35:09;;;;;;;6.93;4.05;;;;;;;;;;5051577;28;20424;-66
2021/04/11 13:37:40;;;;;;;8.73;4.13;;;;;;;;;;5052046;28;20059;-66
2021/04/11 13:40:07;;;;;;;6.90;3.67;;;;;;;;;;5051743;28;20095;-66
2021/04/11 13:42:38;;;;;;;5.53;3.30;;;;;;;;;;5051038;28;20094;-66
2021/04/11 13:45:03;;;;;;;6.20;3.17;;;;;;;;;;5051764;28;20373;-66
2021/04/11 13:47:44;;;;;;;6.95;3.72;;;;;;;;;;5051931;28;20031;-66
2021/04/11 13:50:11;;;;;;;6.70;2.97;;;;;;;;;;5051612;28;20029;-66
2021/04/11 13:52:53;;;;;;;5.55;2.80;;;;;;;;;;5051764;28;20223;-66
2021/04/11 13:55:22;;;;;;;7.00;3.88;;;;;;;;;;5051257;28;20079;-66
2021/04/11 13:58:13;;;;;;;8.27;3.85;;;;;;;;;;5051974;28;20381;-66
2021/04/11 14:00:57;;;;;;;8.15;3.97;;;;;;;;;;5046727;28;20048;-66
2021/04/11 14:03:32;;;;;;;8.02;3.90;;;;;;;;;;5052536;28;20140;-66
2021/04/11 14:06:02;;;;;;;7.05;3.85;;;;;;;;;;5052204;28;20033;-66
2021/04/11 14:08:45;;;;;;;6.32;3.55;;;;;;;;;;5051621;28;20033;-67
2021/04/11 14:11:40;;;;;;;6.97;3.72;;;;;;;;;;5050780;28;20029;-66
2021/04/11 14:14:05;;;;;;;6.00;3.13;;;;;;;;;;5033878;28;20397;-66
2021/04/11 14:16:38;;;;;;;7.18;3.78;;;;;;;;;;5054329;28;20029;-67
2021/04/11 14:19:16;;;;;;;5.93;3.10;;;;;;;;;;5051574;28;20036;-66
2021/04/11 14:21:48;;;;;;;6.32;3.45;;;;;;;;;;5051137;28;20045;-66
2021/04/11 14:24:21;;;;;;;7.85;2.65;;;;;;;;;;5050653;28;20033;-66
2021/04/11 14:27:05;;;;;;;5.22;2.47;;;;;;;;;;5050812;28;20499;-66
2021/04/11 14:29:42;;;;;;;5.28;2.30;;;;;;;;;;5051978;28;20079;-66
2021/04/11 14:32:11;;;;;;;5.43;2.50;;;;;;;;;;5046749;28;20037;-66
2021/04/11 14:34:40;;;;;;;7.28;2.63;;;;;;;;;;5067619;28;20086;-66
2021/04/11 14:37:25;;;;;;;5.38;2.80;;;;;;;;;;5054975;28;20429;-66
2021/04/11 14:39:52;;;;;;;6.03;2.67;;;;;;;;;;5047234;28;20210;-66
2021/04/11 14:42:34;;;;;;;5.65;3.05;;;;;;;;;;5048609;28;20060;-67
2021/04/11 14:45:11;;;;;;;4.60;2.63;;;;;;;;;;5046850;28;20053;-66
2021/04/11 14:47:40;;;;;;;6.47;2.88;;;;;;;;;;5047341;28;20041;-66
2021/04/11 14:50:24;;;;;;;5.43;2.72;;;;;;;;;;5049098;28;20120;-66
2021/04/11 14:53:07;;;;;;;7.85;2.50;;;;;;;;;;5050448;28;20404;-66
2021/04/11 14:55:54;;;;;;;4.85;2.45;;;;;;;;;;5050378;28;20028;-66
2021/04/11 14:58:22;;;;;;;7.10;2.70;;;;;;;;;;5050765;28;20036;-66